createdAt,value
2022-11-14T00:00:14.036Z,37.63
2022-11-14T00:05:16.397Z,37.63
2022-11-14T00:10:18.996Z,37.10
2022-11-14T00:15:21.254Z,35.20
2022-11-14T00:20:23.615Z,33.83
2022-11-14T00:25:26.129Z,32.40
2022-11-14T00:30:28.947Z,28.58
2022-11-14T00:35:31.258Z,29.17
2022-11-14T00:40:33.457Z,27.05
2022-11-14T00:45:35.653Z,29.20
2022-11-14T00:50:38.640Z,28.85
2022-11-14T00:55:41.673Z,24.98
2022-11-14T01:00:43.964Z,26.92
2022-11-14T01:05:48.808Z,27.13
2022-11-14T01:10:51.824Z,26.23
2022-11-14T01:15:55.363Z,25.42
2022-11-14T01:20:58.338Z,24.55
2022-11-14T01:26:09.306Z,24.50
2022-11-14T01:31:15.993Z,25.40
2022-11-14T01:36:19.223Z,24.48
2022-11-14T01:41:22.250Z,25.15
2022-11-14T01:46:31.822Z,25.73
2022-11-14T01:51:42.070Z,25.83
2022-11-14T01:56:49.955Z,24.92
2022-11-14T02:01:54.145Z,25.35
2022-11-14T02:07:00.035Z,26.48
2022-11-14T02:12:05.527Z,27.58
2022-11-14T02:17:28.365Z,27.35
2022-11-14T02:22:30.625Z,28.92
2022-11-14T02:27:35.184Z,29.95
2022-11-14T02:33:08.854Z,28.42
2022-11-14T02:37:59.834Z,30.70
2022-11-14T02:43:02.121Z,30.70
2022-11-14T02:48:04.646Z,30.02
2022-11-14T02:53:06.836Z,30.67
2022-11-14T02:58:09.374Z,31.60
2022-11-14T03:03:11.907Z,31.23
2022-11-14T03:08:14.092Z,32.55
2022-11-14T03:13:16.330Z,32.00
2022-11-14T03:18:18.492Z,32.28
2022-11-14T03:23:20.655Z,29.70
2022-11-14T03:28:22.806Z,29.27
2022-11-14T03:33:25.397Z,25.63
2022-11-14T03:38:27.906Z,24.60
2022-11-14T03:43:34.706Z,24.15
2022-11-14T03:48:37.007Z,24.20
2022-11-14T03:53:39.170Z,22.38
2022-11-14T03:58:41.507Z,21.52
2022-11-14T04:03:43.688Z,22.25
2022-11-14T04:08:45.873Z,21.75
2022-11-14T04:13:48.070Z,20.98
2022-11-14T04:18:50.435Z,20.67
2022-11-14T04:23:52.635Z,20.73
2022-11-14T04:28:55.056Z,20.83
2022-11-14T04:33:57.435Z,19.85
2022-11-14T04:38:59.955Z,19.33
2022-11-14T04:44:02.877Z,20.15
2022-11-14T04:49:05.269Z,22.38
2022-11-14T04:54:07.447Z,25.25
2022-11-14T04:59:09.657Z,31.98
2022-11-14T05:04:12.002Z,32.60
2022-11-14T05:09:14.219Z,28.77
2022-11-14T05:14:16.676Z,30.17
2022-11-14T05:19:18.896Z,28.45
2022-11-14T05:24:21.128Z,29.30
2022-11-14T05:29:23.342Z,30.90
2022-11-14T05:34:26.055Z,30.23
2022-11-14T05:39:30.911Z,29.98
2022-11-14T05:44:33.208Z,29.90
2022-11-14T05:49:35.409Z,30.27
2022-11-14T05:54:37.896Z,30.75
2022-11-14T05:59:40.117Z,33.88
2022-11-14T06:04:42.427Z,34.00
2022-11-14T06:09:44.645Z,32.47
2022-11-14T06:14:46.821Z,33.55
2022-11-14T06:19:49.018Z,33.47
2022-11-14T06:24:51.386Z,35.13
2022-11-14T06:29:53.649Z,34.65
2022-11-14T06:34:55.876Z,34.50
2022-11-14T06:39:58.111Z,37.25
2022-11-14T06:45:00.337Z,37.70
2022-11-14T06:50:02.514Z,40.22
2022-11-14T06:55:05.055Z,36.33
2022-11-14T07:00:08.089Z,34.65
2022-11-14T07:05:10.457Z,32.15
2022-11-14T07:10:12.838Z,34.28
2022-11-14T07:15:15.196Z,33.78
2022-11-14T07:20:18.902Z,32.60
2022-11-14T07:25:23.230Z,32.92
2022-11-14T07:30:25.466Z,33.63
2022-11-14T07:35:28.004Z,31.17
2022-11-14T07:40:30.724Z,29.52
2022-11-14T07:45:33.442Z,31.70
2022-11-14T07:50:35.802Z,31.13
2022-11-14T07:55:39.196Z,30.83
2022-11-14T08:00:41.468Z,31.55
2022-11-14T08:05:43.770Z,29.60
2022-11-14T08:10:46.009Z,29.58
2022-11-14T08:15:48.178Z,26.98
2022-11-14T08:20:59.597Z,24.23
2022-11-14T08:26:01.883Z,25.90
2022-11-14T08:31:05.247Z,26.90
2022-11-14T08:36:08.195Z,23.05
2022-11-14T08:41:10.477Z,25.50
2022-11-14T08:46:12.825Z,23.23
2022-11-14T08:51:15.069Z,24.45
2022-11-14T08:56:17.481Z,22.73
2022-11-14T09:01:19.837Z,24.00
2022-11-14T09:06:22.196Z,22.35
2022-11-14T09:11:24.656Z,21.60
2022-11-14T09:16:26.896Z,19.98
2022-11-14T09:21:29.209Z,18.65
2022-11-14T09:26:31.432Z,18.48
2022-11-14T09:31:33.719Z,19.52
2022-11-14T09:36:36.101Z,20.17
2022-11-14T09:41:44.019Z,20.60
2022-11-14T09:46:50.755Z,19.08
2022-11-14T09:52:01.747Z,19.58
2022-11-14T09:57:04.037Z,20.33
2022-11-14T10:02:20.720Z,20.00
2022-11-14T10:07:25.537Z,19.02
2022-11-14T10:12:38.260Z,18.73
2022-11-14T10:17:45.971Z,17.50
2022-11-14T10:23:15.741Z,18.73
2022-11-14T10:28:17.913Z,19.45
2022-11-14T10:33:51.610Z,17.70
2022-11-14T10:39:05.799Z,18.80
2022-11-14T10:44:16.474Z,19.63
2022-11-14T10:49:22.037Z,19.08
2022-11-14T10:54:42.589Z,18.67
2022-11-14T10:59:44.983Z,18.98
2022-11-14T11:04:47.434Z,27.42
2022-11-14T11:10:18.725Z,19.35
2022-11-14T11:15:44.091Z,19.67
2022-11-14T11:21:03.725Z,18.88
2022-11-14T11:26:26.695Z,18.35
2022-11-14T11:31:29.204Z,16.58
2022-11-14T11:36:41.414Z,16.25
2022-11-14T11:47:16.088Z,16.05
2022-11-14T11:52:30.599Z,14.70
2022-11-14T11:57:55.715Z,13.68
2022-11-14T12:02:59.505Z,16.25
2022-11-14T12:08:10.002Z,14.93
2022-11-14T12:13:24.353Z,17.25
2022-11-14T12:18:54.624Z,16.38
2022-11-14T12:29:36.255Z,15.35
2022-11-14T12:34:42.618Z,13.88
2022-11-14T12:40:00.262Z,13.93
2022-11-14T12:45:02.651Z,14.32
2022-11-14T12:50:25.942Z,15.10
2022-11-14T12:55:48.489Z,13.85
2022-11-14T13:00:50.811Z,13.73
2022-11-14T13:06:01.793Z,13.43
2022-11-14T13:11:53.396Z,12.98
2022-11-14T13:17:37.392Z,11.00
2022-11-14T13:22:42.104Z,11.70
2022-11-14T13:33:07.792Z,11.43
2022-11-14T13:38:25.841Z,11.23
2022-11-14T13:43:43.555Z,11.68
2022-11-14T13:49:05.800Z,12.23
2022-11-14T13:54:17.460Z,13.80
2022-11-14T13:59:41.743Z,15.32
2022-11-14T14:05:04.826Z,13.73
2022-11-14T14:10:16.397Z,13.48
2022-11-14T14:15:27.734Z,12.77
2022-11-14T14:20:48.100Z,13.32
2022-11-14T14:26:25.899Z,12.50
2022-11-14T14:31:37.573Z,13.65
2022-11-14T14:36:50.953Z,13.73
2022-11-14T14:41:55.951Z,15.65
2022-11-14T14:46:58.897Z,15.85
2022-11-14T14:52:01.186Z,15.18
2022-11-14T14:57:03.907Z,16.40
2022-11-14T15:02:16.891Z,16.58
2022-11-14T15:07:25.400Z,19.42
2022-11-14T15:12:31.110Z,19.17
2022-11-14T15:17:35.998Z,18.88
2022-11-14T15:22:39.727Z,18.67
2022-11-14T15:27:50.683Z,18.30
2022-11-14T15:32:55.834Z,18.58
2022-11-14T15:38:43.597Z,20.90
2022-11-14T15:43:46.233Z,19.67
2022-11-14T15:48:48.453Z,20.85
2022-11-14T15:53:52.414Z,20.45
2022-11-14T15:58:54.916Z,20.67
2022-11-14T16:03:59.007Z,22.95
2022-11-14T16:09:01.222Z,22.75
2022-11-14T16:14:03.476Z,23.92
2022-11-14T16:19:07.268Z,26.05
2022-11-14T16:24:19.510Z,23.90
2022-11-14T16:29:21.849Z,25.65
2022-11-14T16:34:27.901Z,25.65
2022-11-14T16:39:30.492Z,26.20
2022-11-14T16:44:38.990Z,27.67
2022-11-14T16:49:44.101Z,29.33
2022-11-14T16:54:46.806Z,31.23
2022-11-14T16:59:49.017Z,51.95
2022-11-14T17:04:51.744Z,43.33
2022-11-14T17:09:53.901Z,42.63
2022-11-14T17:14:56.190Z,32.10
2022-11-14T17:19:58.602Z,41.25
2022-11-14T17:25:00.969Z,48.67
2022-11-14T17:30:03.175Z,42.30
2022-11-14T17:35:06.062Z,38.15
2022-11-14T17:40:14.199Z,38.47
2022-11-14T17:45:17.568Z,42.95
2022-11-14T17:50:19.907Z,51.55
2022-11-14T17:55:22.092Z,54.97
2022-11-14T18:00:24.365Z,56.55
2022-11-14T18:05:26.708Z,54.83
2022-11-14T18:10:28.900Z,48.33
2022-11-14T18:15:32.617Z,46.25
2022-11-14T18:20:38.008Z,37.05
2022-11-14T18:25:40.177Z,39.75
2022-11-14T18:30:43.738Z,33.58
2022-11-14T18:35:56.911Z,38.67
2022-11-14T18:41:03.910Z,33.17
2022-11-14T18:46:07.883Z,36.63
2022-11-14T18:51:31.259Z,34.88
2022-11-14T18:56:33.511Z,39.05
2022-11-14T19:01:36.374Z,41.78
2022-11-14T19:06:41.214Z,34.63
2022-11-14T19:12:02.449Z,44.25
2022-11-14T19:17:07.430Z,38.60
2022-11-14T19:22:09.701Z,35.25
2022-11-14T19:27:12.001Z,34.42
2022-11-14T19:32:14.316Z,38.35
2022-11-14T19:37:16.660Z,41.25
2022-11-14T19:42:19.192Z,44.38
2022-11-14T19:47:21.389Z,45.03
2022-11-14T19:52:23.750Z,45.00
2022-11-14T19:57:25.963Z,47.80
2022-11-14T20:02:30.010Z,51.67
2022-11-14T20:07:33.478Z,49.55
2022-11-14T20:12:36.049Z,43.42
2022-11-14T20:17:38.293Z,41.92
2022-11-14T20:22:40.677Z,40.30
2022-11-14T20:27:42.906Z,37.97
2022-11-14T20:32:45.106Z,36.00
2022-11-14T20:37:47.997Z,31.25
2022-11-14T20:42:50.621Z,33.03
2022-11-14T20:47:54.162Z,30.00
2022-11-14T20:52:56.563Z,26.80
2022-11-14T20:57:58.992Z,30.08
2022-11-14T21:03:01.222Z,31.00
2022-11-14T21:08:03.503Z,30.83
2022-11-14T21:13:27.467Z,34.20
2022-11-14T21:18:30.253Z,36.42
2022-11-14T21:23:33.016Z,33.22
2022-11-14T21:28:38.331Z,32.95
2022-11-14T21:33:40.672Z,35.22
2022-11-14T21:38:43.143Z,40.58
2022-11-14T21:43:46.257Z,45.65
2022-11-14T21:48:49.942Z,49.80
2022-11-14T21:53:55.891Z,45.35
2022-11-14T21:59:14.660Z,46.10
2022-11-14T22:04:16.976Z,43.70
2022-11-14T22:09:19.365Z,40.55
2022-11-14T22:14:21.615Z,41.90
2022-11-14T22:19:24.744Z,40.25
2022-11-14T22:24:26.957Z,42.58
2022-11-14T22:29:29.355Z,44.70
2022-11-14T22:34:31.560Z,41.05
2022-11-14T22:39:33.770Z,39.55
2022-11-14T22:44:35.958Z,44.42
2022-11-14T22:49:38.151Z,48.05
2022-11-14T22:54:40.315Z,49.35
2022-11-14T22:59:42.545Z,54.83
2022-11-14T23:04:44.753Z,54.55
2022-11-14T23:09:46.952Z,49.28
2022-11-14T23:14:49.306Z,50.42
2022-11-14T23:19:51.494Z,49.13
2022-11-14T23:24:53.725Z,47.95
2022-11-14T23:29:56.059Z,45.28
2022-11-14T23:34:58.250Z,42.67
2022-11-14T23:40:00.632Z,43.22
2022-11-14T23:45:03.205Z,43.75
2022-11-14T23:50:05.657Z,44.45
2022-11-14T23:55:08.162Z,41.75
